createdAt,value
2022-11-20T00:01:26.651Z,60.01
2022-11-20T00:03:55.114Z,60.03
2022-11-20T00:06:23.183Z,60.33
2022-11-20T00:08:51.112Z,60.17
2022-11-20T00:11:19.762Z,60.30
2022-11-20T00:13:47.945Z,60.36
2022-11-20T00:16:16.662Z,60.45
2022-11-20T00:18:46.336Z,60.70
2022-11-20T00:21:15.265Z,60.73
2022-11-20T00:23:43.214Z,60.62
2022-11-20T00:26:11.972Z,60.80
2022-11-20T00:28:39.992Z,60.78
2022-11-20T00:31:08.933Z,60.73
2022-11-20T00:33:36.923Z,60.57
2022-11-20T00:36:07.276Z,60.80
2022-11-20T00:38:35.248Z,60.52
2022-11-20T00:41:04.282Z,60.47
2022-11-20T00:43:32.201Z,60.51
2022-11-20T00:46:00.169Z,60.58
2022-11-20T00:48:28.100Z,60.40
2022-11-20T00:50:56.003Z,60.14
2022-11-20T00:53:25.249Z,60.33
2022-11-20T00:55:56.957Z,60.27
2022-11-20T00:58:24.906Z,60.49
2022-11-20T01:00:52.874Z,60.45
2022-11-20T01:03:26.648Z,60.19
2022-11-20T01:05:54.997Z,60.11
2022-11-20T01:08:22.938Z,60.49
2022-11-20T01:10:52.260Z,60.18
2022-11-20T01:13:37.368Z,60.30
2022-11-20T01:16:05.960Z,60.28
2022-11-20T01:18:33.904Z,60.20
2022-11-20T01:21:05.868Z,60.03
2022-11-20T01:23:34.702Z,60.29
2022-11-20T01:26:04.805Z,60.43
2022-11-20T01:28:32.868Z,60.23
2022-11-20T01:31:00.790Z,60.40
2022-11-20T01:33:28.947Z,60.20
2022-11-20T01:36:05.542Z,60.46
2022-11-20T01:38:33.470Z,60.34
2022-11-20T01:41:01.342Z,60.53
2022-11-20T01:43:29.600Z,60.61
2022-11-20T01:46:02.854Z,60.50
2022-11-20T01:48:34.425Z,60.19
2022-11-20T01:51:02.351Z,60.46
2022-11-20T01:53:32.982Z,60.12
2022-11-20T01:56:01.759Z,60.56
2022-11-20T01:58:33.395Z,60.43
2022-11-20T02:01:01.327Z,60.53
2022-11-20T02:03:29.275Z,60.76
2022-11-20T02:05:59.614Z,60.64
2022-11-20T02:08:27.502Z,60.37
2022-11-20T02:10:55.475Z,60.57
2022-11-20T02:13:40.686Z,60.50
2022-11-20T02:16:18.760Z,60.63
2022-11-20T02:18:46.772Z,60.42
2022-11-20T02:21:27.505Z,60.82
2022-11-20T02:24:07.346Z,60.39
2022-11-20T02:26:37.399Z,60.45
2022-11-20T02:29:05.979Z,60.42
2022-11-20T02:31:40.979Z,60.32
2022-11-20T02:34:08.856Z,60.28
2022-11-20T02:36:37.476Z,60.18
2022-11-20T02:39:06.882Z,60.54
2022-11-20T02:41:35.935Z,60.52
2022-11-20T02:44:03.978Z,60.20
2022-11-20T02:46:32.005Z,60.45
2022-11-20T02:48:59.890Z,60.28
2022-11-20T02:51:27.778Z,59.91
2022-11-20T02:53:55.668Z,59.83
2022-11-20T02:56:24.919Z,59.66
2022-11-20T02:58:52.829Z,59.77
2022-11-20T03:01:20.757Z,59.42
2022-11-20T03:03:49.555Z,59.24
2022-11-20T03:06:17.674Z,58.75
2022-11-20T03:08:45.620Z,58.69
2022-11-20T03:11:13.506Z,58.24
2022-11-20T03:13:42.755Z,58.14
2022-11-20T03:16:11.648Z,58.01
2022-11-20T03:18:39.666Z,58.01
2022-11-20T03:21:07.653Z,57.87
2022-11-20T03:23:35.505Z,57.45
2022-11-20T03:26:11.131Z,57.46
2022-11-20T03:28:39.066Z,57.21
2022-11-20T03:31:12.874Z,57.34
2022-11-20T03:33:41.028Z,57.16
2022-11-20T03:36:10.432Z,57.04
2022-11-20T03:38:38.547Z,56.99
2022-11-20T03:41:08.257Z,57.14
2022-11-20T03:43:36.178Z,57.08
2022-11-20T03:46:04.106Z,56.85
2022-11-20T03:48:33.353Z,56.71
2022-11-20T03:51:11.599Z,56.93
2022-11-20T03:53:39.526Z,56.84
2022-11-20T03:56:08.560Z,56.60
2022-11-20T03:58:36.910Z,56.79
2022-11-20T04:01:08.839Z,56.66
2022-11-20T04:03:38.409Z,56.82
2022-11-20T04:06:07.317Z,56.37
2022-11-20T04:08:35.184Z,56.52
2022-11-20T04:11:13.619Z,56.07
2022-11-20T04:13:41.613Z,56.36
2022-11-20T04:16:09.610Z,56.13
2022-11-20T04:18:38.979Z,56.13
2022-11-20T04:21:07.339Z,56.06
2022-11-20T04:23:36.446Z,55.81
2022-11-20T04:26:05.210Z,55.84
2022-11-20T04:28:33.171Z,55.86
2022-11-20T04:31:05.023Z,55.86
2022-11-20T04:33:34.355Z,55.77
2022-11-20T04:36:04.808Z,55.44
2022-11-20T04:38:32.703Z,55.54
2022-11-20T04:41:01.234Z,55.19
2022-11-20T04:43:29.373Z,55.00
2022-11-20T04:45:57.441Z,54.96
2022-11-20T04:48:25.534Z,54.75
2022-11-20T04:50:53.588Z,54.45
2022-11-20T04:53:22.923Z,54.75
2022-11-20T04:55:50.954Z,54.21
2022-11-20T04:58:18.888Z,54.46
2022-11-20T05:00:46.764Z,54.32
2022-11-20T05:03:14.621Z,54.04
2022-11-20T05:05:42.501Z,53.85
2022-11-20T05:08:10.323Z,53.56
2022-11-20T05:10:39.615Z,53.66
2022-11-20T05:13:07.544Z,53.54
2022-11-20T05:15:35.516Z,53.19
2022-11-20T05:18:03.560Z,53.25
2022-11-20T05:20:31.444Z,53.07
2022-11-20T05:22:59.431Z,52.79
2022-11-20T05:25:27.465Z,53.11
2022-11-20T05:27:56.789Z,53.08
2022-11-20T05:30:24.658Z,52.74
2022-11-20T05:32:52.520Z,52.61
2022-11-20T05:35:20.406Z,52.72
2022-11-20T05:37:48.296Z,52.85
2022-11-20T05:40:16.294Z,52.56
2022-11-20T05:42:44.744Z,52.44
2022-11-20T05:45:13.963Z,52.26
2022-11-20T05:47:41.842Z,52.28
2022-11-20T05:50:10.213Z,52.35
2022-11-20T05:52:38.172Z,52.65
2022-11-20T05:55:07.020Z,52.22
2022-11-20T05:57:34.952Z,52.57
2022-11-20T06:00:02.834Z,52.30
2022-11-20T06:02:32.181Z,52.72
2022-11-20T06:05:00.083Z,52.75
2022-11-20T06:07:27.972Z,52.80
2022-11-20T06:09:55.956Z,52.61
2022-11-20T06:12:23.811Z,52.56
2022-11-20T06:14:51.672Z,52.79
2022-11-20T06:17:19.546Z,52.82
2022-11-20T06:19:48.777Z,52.41
2022-11-20T06:22:16.656Z,52.05
2022-11-20T06:24:44.528Z,51.96
2022-11-20T06:27:12.418Z,51.47
2022-11-20T06:29:40.452Z,51.60
2022-11-20T06:32:08.302Z,51.04
2022-11-20T06:34:36.166Z,51.23
2022-11-20T06:37:05.401Z,50.87
2022-11-20T06:39:33.331Z,50.94
2022-11-20T06:42:01.243Z,50.63
2022-11-20T06:44:29.076Z,50.57
2022-11-20T06:46:56.979Z,50.44
2022-11-20T06:49:25.111Z,50.14
2022-11-20T06:51:53.156Z,50.03
2022-11-20T06:54:22.456Z,50.18
2022-11-20T06:56:50.343Z,50.17
2022-11-20T06:59:18.366Z,49.99
2022-11-20T07:01:46.252Z,50.42
2022-11-20T07:04:14.123Z,49.77
2022-11-20T07:06:42.019Z,49.94
2022-11-20T07:09:12.773Z,49.67
2022-11-20T07:11:42.270Z,50.04
2022-11-20T07:14:10.197Z,50.12
2022-11-20T07:16:38.054Z,50.38
2022-11-20T07:19:05.943Z,50.22
2022-11-20T07:21:33.885Z,50.48
2022-11-20T07:24:01.767Z,50.67
2022-11-20T07:26:29.648Z,50.35
2022-11-20T07:28:58.926Z,50.68
2022-11-20T07:31:26.849Z,50.61
2022-11-20T07:33:54.707Z,50.59
2022-11-20T07:36:22.726Z,50.78
2022-11-20T07:38:50.702Z,50.77
2022-11-20T07:41:18.648Z,50.70
2022-11-20T07:43:46.586Z,50.55
2022-11-20T07:46:15.908Z,50.74
2022-11-20T07:48:43.751Z,50.57
2022-11-20T07:51:11.678Z,50.56
2022-11-20T07:53:39.644Z,50.55
2022-11-20T07:56:07.944Z,50.38
2022-11-20T07:58:35.952Z,50.73
2022-11-20T08:01:07.186Z,50.56
2022-11-20T08:03:38.675Z,50.95
2022-11-20T08:06:07.092Z,50.67
2022-11-20T08:08:37.840Z,50.72
2022-11-20T08:11:26.175Z,50.71
2022-11-20T08:14:11.368Z,50.53
2022-11-20T08:16:39.297Z,50.39
2022-11-20T08:19:08.838Z,49.73
2022-11-20T08:21:38.401Z,49.55
2022-11-20T08:24:07.591Z,49.55
2022-11-20T08:26:35.548Z,49.15
2022-11-20T08:29:03.521Z,48.61
2022-11-20T08:31:31.582Z,48.55
2022-11-20T08:33:59.598Z,48.42
2022-11-20T08:36:29.289Z,48.34
2022-11-20T08:38:57.548Z,48.23
2022-11-20T08:41:28.813Z,48.08
2022-11-20T08:43:58.052Z,47.95
2022-11-20T08:46:26.400Z,47.69
2022-11-20T08:48:54.303Z,47.89
2022-11-20T08:51:22.414Z,47.46
2022-11-20T08:53:51.646Z,47.55
2022-11-20T08:56:19.604Z,47.38
2022-11-20T08:59:17.915Z,47.22
2022-11-20T09:01:36.063Z,47.12
2022-11-20T09:04:05.668Z,47.40
2022-11-20T09:06:33.632Z,47.36
2022-11-20T09:09:06.570Z,47.57
2022-11-20T09:11:34.992Z,47.36
2022-11-20T09:14:03.838Z,47.02
2022-11-20T09:16:31.821Z,46.55
2022-11-20T09:19:20.594Z,46.06
2022-11-20T09:21:47.823Z,46.53
2022-11-20T09:24:17.323Z,46.46
2022-11-20T09:26:45.151Z,46.54
2022-11-20T09:29:13.038Z,46.23
2022-11-20T09:31:43.579Z,46.23
2022-11-20T09:34:12.013Z,45.99
2022-11-20T09:36:40.118Z,46.06
2022-11-20T09:39:08.026Z,45.78
2022-11-20T09:41:58.535Z,45.97
2022-11-20T09:44:34.523Z,45.94
2022-11-20T09:47:03.923Z,46.22
2022-11-20T09:49:35.404Z,45.48
2022-11-20T09:52:15.904Z,45.50
2022-11-20T09:54:43.799Z,45.59
2022-11-20T09:57:13.931Z,45.08
2022-11-20T09:59:43.444Z,45.48
2022-11-20T10:02:18.668Z,45.21
2022-11-20T10:04:48.514Z,45.44
2022-11-20T10:07:34.305Z,45.97
2022-11-20T10:10:02.274Z,46.09
2022-11-20T10:12:36.138Z,45.81
2022-11-20T10:15:11.408Z,45.87
2022-11-20T10:18:14.712Z,45.61
2022-11-20T10:20:46.783Z,45.74
2022-11-20T10:23:44.202Z,45.51
2022-11-20T10:26:19.262Z,46.26
2022-11-20T10:28:59.262Z,46.80
2022-11-20T10:31:31.237Z,47.03
2022-11-20T10:34:12.177Z,46.53
2022-11-20T10:36:42.841Z,46.55
2022-11-20T10:39:17.043Z,46.69
2022-11-20T10:41:45.056Z,47.29
2022-11-20T10:44:39.450Z,47.47
2022-11-20T10:47:07.593Z,47.87
2022-11-20T10:49:35.567Z,48.09
2022-11-20T10:52:07.959Z,47.74
2022-11-20T10:54:38.983Z,47.96
2022-11-20T10:57:10.181Z,48.34
2022-11-20T10:59:47.701Z,47.26
2022-11-20T11:02:17.752Z,49.25
2022-11-20T11:04:46.560Z,51.07
2022-11-20T11:07:17.071Z,51.78
2022-11-20T11:09:46.547Z,53.89
2022-11-20T11:12:14.479Z,55.03
2022-11-20T11:14:51.286Z,55.55
2022-11-20T11:17:28.255Z,55.98
2022-11-20T11:20:00.830Z,56.90
2022-11-20T11:22:28.672Z,57.00
2022-11-20T11:24:56.664Z,57.13
2022-11-20T11:27:24.643Z,57.22
2022-11-20T11:30:03.704Z,56.61
2022-11-20T11:32:31.757Z,56.34
2022-11-20T11:35:03.223Z,57.50
2022-11-20T11:37:34.989Z,61.22
2022-11-20T11:40:23.433Z,61.24
2022-11-20T11:42:55.163Z,60.52
2022-11-20T11:45:23.422Z,60.31
2022-11-20T11:47:52.467Z,58.35
2022-11-20T11:50:22.604Z,56.79
2022-11-20T11:52:58.622Z,55.90
2022-11-20T11:55:31.691Z,53.81
2022-11-20T11:58:06.572Z,53.25
2022-11-20T12:00:35.832Z,53.01
2022-11-20T12:03:07.581Z,53.24
2022-11-20T12:05:38.598Z,52.32
2022-11-20T12:08:12.323Z,51.89
2022-11-20T12:10:43.578Z,51.68
2022-11-20T12:13:19.778Z,50.90
2022-11-20T12:15:49.063Z,51.06
2022-11-20T12:18:17.661Z,50.64
2022-11-20T12:20:47.973Z,48.19
2022-11-20T12:23:18.898Z,46.51
2022-11-20T12:25:47.496Z,45.31
2022-11-20T12:28:47.084Z,44.74
2022-11-20T12:31:31.087Z,45.67
2022-11-20T12:34:09.113Z,45.98
2022-11-20T12:36:42.860Z,46.68
2022-11-20T12:39:19.223Z,46.57
2022-11-20T12:42:32.366Z,47.43
2022-11-20T12:45:20.128Z,48.03
2022-11-20T12:47:58.439Z,48.12
2022-11-20T12:50:38.777Z,48.58
2022-11-20T12:53:27.108Z,48.16
2022-11-20T12:55:58.449Z,48.52
2022-11-20T12:58:31.617Z,48.37
2022-11-20T13:01:02.747Z,47.97
2022-11-20T13:03:39.227Z,48.05
2022-11-20T13:06:12.472Z,48.12
2022-11-20T13:08:41.431Z,47.85
2022-11-20T13:11:13.720Z,47.65
2022-11-20T13:13:47.515Z,47.38
2022-11-20T13:16:19.009Z,47.68
2022-11-20T13:18:48.351Z,48.19
2022-11-20T13:21:17.816Z,47.70
2022-11-20T13:23:45.664Z,46.91
2022-11-20T13:26:18.731Z,47.61
2022-11-20T13:28:47.980Z,48.85
2022-11-20T13:31:29.542Z,47.16
2022-11-20T13:33:59.167Z,47.65
2022-11-20T13:36:28.562Z,47.70
2022-11-20T13:38:57.161Z,47.59
2022-11-20T13:41:32.469Z,46.75
2022-11-20T13:44:06.454Z,45.70
2022-11-20T13:46:40.891Z,43.98
2022-11-20T13:49:17.243Z,44.18
2022-11-20T13:51:46.285Z,43.49
2022-11-20T13:54:28.821Z,43.72
2022-11-20T13:57:02.849Z,42.37
2022-11-20T13:59:41.433Z,41.96
2022-11-20T14:02:12.704Z,41.59
2022-11-20T14:04:44.904Z,41.75
2022-11-20T14:07:12.829Z,40.83
2022-11-20T14:09:40.784Z,40.32
2022-11-20T14:12:16.727Z,40.15
2022-11-20T14:14:50.395Z,40.18
2022-11-20T14:17:20.599Z,40.74
2022-11-20T14:19:50.365Z,40.46
2022-11-20T14:22:20.630Z,40.35
2022-11-20T14:24:48.751Z,40.54
2022-11-20T14:27:17.689Z,40.57
2022-11-20T14:29:45.984Z,42.50
2022-11-20T14:32:13.840Z,42.56
2022-11-20T14:34:42.520Z,41.14
2022-11-20T14:37:17.015Z,40.64
2022-11-20T14:39:50.031Z,40.79
2022-11-20T14:42:18.198Z,40.74
2022-11-20T14:44:46.178Z,41.36
2022-11-20T14:47:15.001Z,41.01
2022-11-20T14:49:43.405Z,41.60
2022-11-20T14:52:16.860Z,41.94
2022-11-20T14:54:48.870Z,42.41
2022-11-20T14:57:25.099Z,43.01
2022-11-20T14:59:53.160Z,42.85
2022-11-20T15:02:21.028Z,42.78
2022-11-20T15:04:49.615Z,42.38
2022-11-20T15:07:29.365Z,42.54
2022-11-20T15:10:05.820Z,42.23
2022-11-20T15:12:34.085Z,42.22
2022-11-20T15:15:02.672Z,42.16
2022-11-20T15:17:33.748Z,42.08
2022-11-20T15:20:02.136Z,42.34
2022-11-20T15:22:31.351Z,42.86
2022-11-20T15:24:59.504Z,42.98
2022-11-20T15:27:27.419Z,43.45
2022-11-20T15:29:57.510Z,43.50
2022-11-20T15:32:26.632Z,43.19
2022-11-20T15:34:54.761Z,43.53
2022-11-20T15:37:29.769Z,43.76
2022-11-20T15:39:59.394Z,43.76
2022-11-20T15:42:27.534Z,43.90
2022-11-20T15:44:55.516Z,43.89
2022-11-20T15:47:28.230Z,44.08
2022-11-20T15:49:56.386Z,44.75
2022-11-20T15:52:24.279Z,44.45
2022-11-20T15:54:52.231Z,44.50
2022-11-20T15:57:21.500Z,44.82
2022-11-20T15:59:52.592Z,45.02
2022-11-20T16:02:20.599Z,44.97
2022-11-20T16:04:48.507Z,45.44
2022-11-20T16:07:16.504Z,45.03
2022-11-20T16:09:44.562Z,45.50
2022-11-20T16:12:34.256Z,45.65
2022-11-20T16:15:20.983Z,45.69
2022-11-20T16:17:48.916Z,45.90
2022-11-20T16:20:17.781Z,45.92
2022-11-20T16:22:45.662Z,45.18
2022-11-20T16:25:13.811Z,45.48
2022-11-20T16:27:41.654Z,45.30
2022-11-20T16:30:12.739Z,45.31
2022-11-20T16:32:40.787Z,45.72
2022-11-20T16:35:09.522Z,45.87
2022-11-20T16:37:37.417Z,45.73
2022-11-20T16:40:06.096Z,46.16
2022-11-20T16:42:35.207Z,46.42
2022-11-20T16:45:03.113Z,46.13
2022-11-20T16:47:34.607Z,46.26
2022-11-20T16:50:02.568Z,46.30
2022-11-20T16:52:31.045Z,46.22
2022-11-20T16:54:58.979Z,46.04
2022-11-20T16:57:28.257Z,46.47
2022-11-20T17:00:02.083Z,46.25
2022-11-20T17:02:32.068Z,46.35
2022-11-20T17:05:00.682Z,46.17
2022-11-20T17:07:28.683Z,46.27
2022-11-20T17:09:56.678Z,46.36
2022-11-20T17:12:24.638Z,46.17
2022-11-20T17:14:52.626Z,46.11
2022-11-20T17:17:20.532Z,46.09
2022-11-20T17:19:50.049Z,46.10
2022-11-20T17:22:18.160Z,46.31
2022-11-20T17:24:46.170Z,46.23
2022-11-20T17:27:16.952Z,46.16
2022-11-20T17:29:44.977Z,46.09
2022-11-20T17:32:12.902Z,46.61
2022-11-20T17:34:40.815Z,46.62
2022-11-20T17:37:10.059Z,46.88
2022-11-20T17:39:37.986Z,46.62
2022-11-20T17:42:23.657Z,46.29
2022-11-20T17:44:51.632Z,46.62
2022-11-20T17:47:19.602Z,46.44
2022-11-20T17:49:47.481Z,45.87
2022-11-20T17:52:16.751Z,45.96
2022-11-20T17:54:44.631Z,45.68
2022-11-20T17:57:29.852Z,46.09
2022-11-20T17:59:57.842Z,46.02
2022-11-20T18:02:26.001Z,46.22
2022-11-20T18:04:53.959Z,46.46
2022-11-20T18:07:23.241Z,46.78
2022-11-20T18:09:51.535Z,46.55
2022-11-20T18:12:19.387Z,46.97
2022-11-20T18:14:48.315Z,47.08
2022-11-20T18:17:17.218Z,46.98
2022-11-20T18:20:00.948Z,47.33
2022-11-20T18:22:35.505Z,47.27
2022-11-20T18:25:03.571Z,47.52
2022-11-20T18:27:31.503Z,47.76
2022-11-20T18:29:59.405Z,47.62
2022-11-20T18:32:27.372Z,47.88
2022-11-20T18:34:55.429Z,47.82
2022-11-20T18:37:23.415Z,48.55
2022-11-20T18:39:52.735Z,49.16
2022-11-20T18:42:37.962Z,49.98
2022-11-20T18:45:06.543Z,50.46
2022-11-20T18:47:37.502Z,50.72
2022-11-20T18:50:06.497Z,50.81
2022-11-20T18:52:35.137Z,51.05
2022-11-20T18:55:04.900Z,51.30
2022-11-20T18:57:33.258Z,51.04
2022-11-20T19:00:08.039Z,51.29
2022-11-20T19:02:41.768Z,51.54
2022-11-20T19:05:10.862Z,51.53
2022-11-20T19:07:38.949Z,51.71
2022-11-20T19:10:08.843Z,51.64
2022-11-20T19:12:37.342Z,51.66
2022-11-20T19:15:05.752Z,51.55
2022-11-20T19:17:34.092Z,51.60
2022-11-20T19:20:02.011Z,51.87
2022-11-20T19:22:29.883Z,51.93
2022-11-20T19:24:58.157Z,51.87
2022-11-20T19:27:27.447Z,51.94
2022-11-20T19:29:58.835Z,51.73
2022-11-20T19:32:26.825Z,51.99
2022-11-20T19:35:00.359Z,52.16
2022-11-20T19:37:34.449Z,52.05
2022-11-20T19:40:04.712Z,52.37
2022-11-20T19:42:34.266Z,52.65
2022-11-20T19:45:02.211Z,52.64
2022-11-20T19:47:52.626Z,52.70
2022-11-20T19:50:18.100Z,52.71
2022-11-20T19:52:46.000Z,52.54
2022-11-20T19:55:13.851Z,52.74
2022-11-20T19:57:43.553Z,52.77
2022-11-20T20:00:15.964Z,52.42
2022-11-20T20:02:47.990Z,52.70
2022-11-20T20:05:15.957Z,52.54
2022-11-20T20:07:43.950Z,52.47
2022-11-20T20:10:11.864Z,52.66
2022-11-20T20:12:39.877Z,52.67
2022-11-20T20:15:10.907Z,52.63
2022-11-20T20:17:38.894Z,52.28
2022-11-20T20:20:07.877Z,52.52
2022-11-20T20:22:35.794Z,52.33
2022-11-20T20:25:07.034Z,52.27
2022-11-20T20:27:38.610Z,52.31
2022-11-20T20:30:08.341Z,52.05
2022-11-20T20:32:38.387Z,52.22
2022-11-20T20:35:07.231Z,52.16
2022-11-20T20:37:35.479Z,51.78
2022-11-20T20:40:03.680Z,51.77
2022-11-20T20:42:32.227Z,51.37
2022-11-20T20:45:11.076Z,51.13
2022-11-20T20:47:42.015Z,50.85
2022-11-20T20:50:14.112Z,50.46
2022-11-20T20:52:42.559Z,50.41
2022-11-20T20:55:13.715Z,50.28
2022-11-20T20:57:42.364Z,50.41
2022-11-20T21:00:11.689Z,50.68
2022-11-20T21:02:41.055Z,50.38
2022-11-20T21:05:13.007Z,50.47
2022-11-20T21:08:01.040Z,50.28
2022-11-20T21:10:30.662Z,50.55
2022-11-20T21:12:58.940Z,50.36
2022-11-20T21:15:27.086Z,50.66
2022-11-20T21:18:01.445Z,50.60
2022-11-20T21:20:48.312Z,50.63
2022-11-20T21:23:16.612Z,50.75
2022-11-20T21:25:44.508Z,50.70
2022-11-20T21:28:16.990Z,50.89
2022-11-20T21:30:49.777Z,50.72
2022-11-20T21:33:19.702Z,51.04
2022-11-20T21:35:47.810Z,50.83
2022-11-20T21:38:16.116Z,50.97
2022-11-20T21:40:44.050Z,51.07
2022-11-20T21:43:12.219Z,51.27
2022-11-20T21:45:40.133Z,51.11
2022-11-20T21:48:08.103Z,51.39
2022-11-20T21:50:39.439Z,51.40
2022-11-20T21:53:07.375Z,51.45
2022-11-20T21:55:35.405Z,51.72
2022-11-20T21:58:06.128Z,51.86
2022-11-20T22:00:34.041Z,52.01
2022-11-20T22:03:02.221Z,51.89
2022-11-20T22:05:30.160Z,52.08
2022-11-20T22:07:59.375Z,52.10
2022-11-20T22:10:27.975Z,52.21
2022-11-20T22:13:17.166Z,52.37
2022-11-20T22:15:59.755Z,52.71
2022-11-20T22:18:28.114Z,53.13
2022-11-20T22:20:56.016Z,53.56
2022-11-20T22:23:25.391Z,53.49
2022-11-20T22:25:53.311Z,53.60
2022-11-20T22:28:21.172Z,53.48
2022-11-20T22:30:49.044Z,53.68
2022-11-20T22:33:16.961Z,53.65
2022-11-20T22:35:44.875Z,53.61
2022-11-20T22:38:13.078Z,53.87
2022-11-20T22:40:43.777Z,53.90
2022-11-20T22:43:11.758Z,53.92
2022-11-20T22:45:39.679Z,53.77
2022-11-20T22:48:07.758Z,53.96
2022-11-20T22:50:35.599Z,53.95
2022-11-20T22:53:03.522Z,53.84
2022-11-20T22:55:33.590Z,54.00
2022-11-20T22:58:03.151Z,53.96
2022-11-20T23:00:31.078Z,54.02
2022-11-20T23:02:59.033Z,53.83
2022-11-20T23:05:27.004Z,53.67
2022-11-20T23:07:54.973Z,54.15
2022-11-20T23:10:22.861Z,54.44
2022-11-20T23:12:50.694Z,54.19
2022-11-20T23:15:20.155Z,54.71
2022-11-20T23:17:48.180Z,54.55
2022-11-20T23:20:16.290Z,54.87
2022-11-20T23:22:44.408Z,54.93
2022-11-20T23:25:12.290Z,55.33
2022-11-20T23:27:40.220Z,55.10
2022-11-20T23:30:09.787Z,55.15
2022-11-20T23:32:39.097Z,55.22
2022-11-20T23:35:07.397Z,55.00
2022-11-20T23:37:35.335Z,54.84
2022-11-20T23:40:03.503Z,54.99
2022-11-20T23:42:31.458Z,54.88
2022-11-20T23:44:59.445Z,54.72
2022-11-20T23:47:27.395Z,55.08
2022-11-20T23:49:56.726Z,55.39
2022-11-20T23:52:26.364Z,55.68
2022-11-20T23:54:54.238Z,55.58
2022-11-20T23:57:22.100Z,55.59
2022-11-20T23:59:50.049Z,55.95
